createdAt,value
2017-06-16T00:01:16.757Z,17.50
2017-06-16T00:03:44.244Z,17.60
2017-06-16T00:06:11.808Z,17.60
2017-06-16T00:08:39.293Z,17.60
2017-06-16T00:11:06.784Z,17.60
2017-06-16T00:13:34.276Z,17.50
2017-06-16T00:16:01.868Z,17.40
2017-06-16T00:18:29.384Z,17.40
2017-06-16T00:20:57.640Z,17.30
2017-06-16T00:23:25.216Z,17.30
2017-06-16T00:25:52.756Z,17.20
2017-06-16T00:28:20.300Z,17.20
2017-06-16T00:30:47.848Z,17.10
2017-06-16T00:33:15.330Z,17.10
2017-06-16T00:35:42.829Z,17.10
2017-06-16T00:38:10.384Z,17.10
2017-06-16T00:40:37.920Z,17.10
2017-06-16T00:43:05.451Z,17.10
2017-06-16T00:45:33.008Z,17.10
2017-06-16T00:48:00.552Z,17.20
2017-06-16T00:50:28.044Z,17.00
2017-06-16T00:52:55.633Z,17.00
2017-06-16T00:55:23.112Z,17.10
2017-06-16T00:57:50.592Z,17.10
2017-06-16T01:00:18.854Z,17.20
2017-06-16T01:02:47.239Z,17.20
2017-06-16T01:05:14.734Z,17.20
2017-06-16T01:07:42.219Z,17.20
2017-06-16T01:10:09.728Z,17.30
2017-06-16T01:12:37.311Z,17.40
2017-06-16T01:15:04.805Z,17.50
2017-06-16T01:17:32.316Z,17.40
2017-06-16T01:19:59.844Z,17.50
2017-06-16T01:22:27.328Z,17.40
2017-06-16T01:24:54.938Z,17.40
2017-06-16T01:27:22.477Z,17.40
2017-06-16T01:29:50.016Z,17.40
2017-06-16T01:32:17.570Z,17.30
2017-06-16T01:34:45.106Z,17.10
2017-06-16T01:37:12.624Z,17.20
2017-06-16T01:39:41.009Z,17.10
2017-06-16T01:42:08.496Z,17.10
2017-06-16T01:44:35.980Z,17.10
2017-06-16T01:47:03.512Z,17.10
2017-06-16T01:49:31.797Z,17.00
2017-06-16T01:51:59.289Z,17.00
2017-06-16T01:54:26.884Z,17.10
2017-06-16T01:56:54.428Z,17.10
2017-06-16T01:59:21.972Z,17.00
2017-06-16T02:01:49.517Z,17.00
2017-06-16T02:04:17.009Z,17.10
2017-06-16T02:06:44.605Z,17.10
2017-06-16T02:09:12.617Z,17.10
2017-06-16T02:11:40.108Z,17.10
2017-06-16T02:14:07.612Z,17.10
2017-06-16T02:16:35.908Z,17.00
2017-06-16T02:19:03.407Z,16.90
2017-06-16T02:21:30.992Z,17.00
2017-06-16T02:23:58.500Z,17.00
2017-06-16T02:26:25.984Z,17.00
2017-06-16T02:28:53.520Z,17.00
2017-06-16T02:31:21.064Z,16.90
2017-06-16T02:33:48.553Z,16.80
2017-06-16T02:36:16.149Z,16.70
2017-06-16T02:38:43.703Z,16.80
2017-06-16T02:41:11.240Z,16.70
2017-06-16T02:43:38.729Z,16.70
2017-06-16T02:46:06.428Z,16.60
2017-06-16T02:48:33.973Z,16.60
2017-06-16T02:51:01.520Z,16.70
2017-06-16T02:53:29.156Z,16.60
2017-06-16T02:55:56.640Z,16.60
2017-06-16T02:58:24.149Z,16.50
2017-06-16T03:00:51.672Z,16.60
2017-06-16T03:03:19.940Z,16.50
2017-06-16T03:05:47.493Z,16.40
2017-06-16T03:08:15.045Z,16.60
2017-06-16T03:10:42.545Z,16.60
2017-06-16T03:13:10.837Z,16.60
2017-06-16T03:15:38.384Z,16.60
2017-06-16T03:18:05.928Z,16.50
2017-06-16T03:20:33.408Z,16.50
2017-06-16T03:23:01.776Z,16.40
2017-06-16T03:25:29.264Z,16.40
2017-06-16T03:27:56.811Z,16.50
2017-06-16T03:30:24.352Z,16.40
2017-06-16T03:32:51.892Z,16.40
2017-06-16T03:35:19.444Z,16.40
2017-06-16T03:37:47.188Z,16.40
2017-06-16T03:40:14.686Z,16.50
2017-06-16T03:42:42.180Z,16.40
2017-06-16T03:45:09.688Z,16.40
2017-06-16T03:47:37.944Z,16.30
2017-06-16T03:50:05.453Z,16.20
2017-06-16T03:52:32.964Z,16.30
2017-06-16T03:55:00.452Z,16.30
2017-06-16T03:57:28.053Z,16.20
2017-06-16T03:59:55.596Z,16.10
2017-06-16T04:02:23.140Z,16.10
2017-06-16T04:04:50.672Z,16.20
2017-06-16T04:07:18.176Z,16.00
2017-06-16T04:09:45.771Z,16.00
2017-06-16T04:12:13.316Z,16.00
2017-06-16T04:14:40.969Z,16.00
2017-06-16T04:17:09.252Z,16.00
2017-06-16T04:19:36.772Z,16.00
2017-06-16T04:22:04.308Z,16.00
2017-06-16T04:24:31.801Z,16.00
2017-06-16T04:26:59.497Z,16.00
2017-06-16T04:29:27.041Z,16.10
2017-06-16T04:31:54.528Z,16.10
2017-06-16T04:34:22.229Z,16.20
2017-06-16T04:36:49.768Z,16.30
2017-06-16T04:39:17.316Z,16.40
2017-06-16T04:41:44.858Z,16.40
2017-06-16T04:44:12.365Z,16.50
2017-06-16T04:46:39.874Z,16.40
2017-06-16T04:49:07.553Z,16.40
2017-06-16T04:51:35.132Z,16.50
2017-06-16T04:54:02.690Z,16.60
2017-06-16T04:56:30.309Z,16.50
2017-06-16T04:58:58.564Z,16.40
2017-06-16T05:01:26.820Z,16.40
2017-06-16T05:03:55.216Z,16.40
2017-06-16T05:06:22.709Z,16.40
2017-06-16T05:08:50.293Z,16.40
2017-06-16T05:11:17.839Z,16.40
2017-06-16T05:13:45.333Z,16.50
2017-06-16T05:16:12.931Z,16.70
2017-06-16T05:18:40.488Z,16.70
2017-06-16T05:21:08.016Z,16.70
2017-06-16T05:23:35.504Z,16.80
2017-06-16T05:26:03.126Z,16.80
2017-06-16T05:28:30.744Z,16.90
2017-06-16T05:30:58.288Z,16.90
2017-06-16T05:33:25.832Z,17.00
2017-06-16T05:35:53.320Z,17.00
2017-06-16T05:38:20.816Z,17.10
2017-06-16T05:40:48.342Z,17.10
2017-06-16T05:43:16.601Z,17.10
2017-06-16T05:45:44.860Z,17.20
2017-06-16T05:48:13.334Z,17.30
2017-06-16T05:50:40.836Z,17.20
2017-06-16T05:53:08.428Z,17.30
2017-06-16T05:55:35.980Z,17.30
2017-06-16T05:58:03.480Z,17.30
2017-06-16T06:00:30.972Z,17.40
2017-06-16T06:02:58.604Z,17.40
2017-06-16T06:05:26.088Z,17.50
2017-06-16T06:07:53.587Z,17.50
2017-06-16T06:10:21.123Z,17.60
2017-06-16T06:12:48.680Z,17.80
2017-06-16T06:15:16.220Z,17.80
2017-06-16T06:17:43.744Z,17.90
2017-06-16T06:20:11.312Z,17.80
2017-06-16T06:22:38.879Z,17.80
2017-06-16T06:25:06.376Z,17.80
2017-06-16T06:27:34.657Z,17.90
2017-06-16T06:30:02.162Z,17.90
2017-06-16T06:32:29.652Z,17.90
2017-06-16T06:34:57.184Z,17.90
2017-06-16T06:37:24.827Z,17.80
2017-06-16T06:39:52.373Z,17.90
2017-06-16T06:42:19.912Z,17.80
2017-06-16T06:44:47.416Z,17.80
2017-06-16T06:47:14.903Z,17.90
2017-06-16T06:49:42.445Z,17.80
2017-06-16T06:52:09.996Z,17.70
2017-06-16T06:54:37.531Z,17.60
2017-06-16T06:57:05.020Z,17.60
2017-06-16T06:59:32.724Z,17.60
2017-06-16T07:02:00.268Z,17.50
2017-06-16T07:04:27.756Z,17.60
2017-06-16T07:06:55.349Z,17.70
2017-06-16T07:09:22.844Z,17.90
2017-06-16T07:11:50.328Z,18.10
2017-06-16T07:14:17.894Z,18.30
2017-06-16T07:16:45.428Z,18.40
2017-06-16T07:19:12.928Z,18.40
2017-06-16T07:21:40.504Z,18.30
2017-06-16T07:24:07.987Z,18.40
2017-06-16T07:26:35.474Z,18.70
2017-06-16T07:29:03.760Z,18.90
2017-06-16T07:31:31.296Z,18.90
2017-06-16T07:33:58.840Z,19.10
2017-06-16T07:36:26.327Z,19.30
2017-06-16T07:38:53.852Z,19.40
2017-06-16T07:41:21.368Z,19.60
2017-06-16T07:43:48.852Z,19.60
2017-06-16T07:46:16.448Z,19.60
2017-06-16T07:48:43.932Z,19.70
2017-06-16T07:51:11.536Z,19.60
2017-06-16T07:53:39.089Z,19.50
2017-06-16T07:56:06.628Z,19.40
2017-06-16T07:58:34.124Z,19.60
2017-06-16T08:01:01.604Z,19.70
2017-06-16T08:03:29.124Z,19.90
2017-06-16T08:05:56.714Z,20.00
2017-06-16T08:08:24.204Z,20.20
2017-06-16T08:10:51.681Z,20.40
2017-06-16T08:13:19.175Z,20.50
2017-06-16T08:15:46.660Z,20.40
2017-06-16T08:18:14.216Z,20.20
2017-06-16T08:21:00.561Z,19.80
2017-06-16T08:23:28.136Z,19.90
2017-06-16T08:25:55.620Z,20.00
2017-06-16T08:28:23.100Z,20.00
2017-06-16T08:30:51.389Z,20.30
2017-06-16T08:33:18.926Z,20.30
2017-06-16T08:35:46.483Z,20.50
2017-06-16T08:38:14.016Z,20.60
2017-06-16T08:40:41.564Z,20.60
2017-06-16T08:43:09.106Z,20.50
2017-06-16T08:45:36.596Z,20.30
2017-06-16T08:48:04.081Z,20.20
2017-06-16T08:50:31.627Z,20.20
2017-06-16T08:52:59.104Z,20.30
2017-06-16T08:55:26.613Z,20.50
2017-06-16T08:57:54.154Z,20.30
2017-06-16T09:00:21.709Z,20.30
2017-06-16T09:02:49.193Z,20.50
2017-06-16T09:05:16.680Z,20.80
2017-06-16T09:07:44.168Z,21.20
2017-06-16T09:10:11.664Z,21.20
2017-06-16T09:12:39.140Z,21.10
2017-06-16T09:15:06.684Z,21.00
2017-06-16T09:17:34.199Z,20.70
2017-06-16T09:20:01.745Z,20.20
2017-06-16T09:22:29.346Z,20.00
2017-06-16T09:24:56.819Z,19.70
2017-06-16T09:27:24.300Z,19.50
2017-06-16T09:29:51.777Z,19.40
2017-06-16T09:32:19.261Z,19.30
2017-06-16T09:34:46.804Z,19.30
2017-06-16T09:37:14.340Z,19.50
2017-06-16T09:39:41.884Z,19.50
2017-06-16T09:42:09.431Z,19.50
2017-06-16T09:44:37.026Z,19.50
2017-06-16T09:47:04.512Z,19.50
2017-06-16T09:49:32.051Z,19.50
2017-06-16T09:51:59.600Z,19.50
2017-06-16T09:54:27.104Z,19.50
2017-06-16T09:56:54.585Z,19.60
2017-06-16T09:59:22.134Z,19.90
2017-06-16T10:01:49.620Z,20.20
2017-06-16T10:04:17.104Z,20.30
2017-06-16T10:06:44.660Z,20.40
2017-06-16T10:09:12.149Z,20.50
2017-06-16T10:11:39.757Z,20.20
2017-06-16T10:14:07.288Z,19.80
2017-06-16T10:16:34.772Z,19.70
2017-06-16T10:19:02.273Z,19.70
2017-06-16T10:21:29.776Z,19.90
2017-06-16T10:23:57.360Z,20.10
2017-06-16T10:26:24.972Z,20.30
2017-06-16T10:28:52.527Z,20.20
2017-06-16T10:31:20.016Z,20.30
2017-06-16T10:33:47.508Z,20.30
2017-06-16T10:36:15.804Z,20.60
2017-06-16T10:38:43.304Z,20.60
2017-06-16T10:41:10.789Z,20.60
2017-06-16T10:43:39.072Z,20.20
2017-06-16T10:46:06.592Z,20.20
2017-06-16T10:48:34.188Z,20.20
2017-06-16T10:51:01.671Z,20.00
2017-06-16T10:53:29.240Z,20.00
2017-06-16T10:55:56.889Z,19.70
2017-06-16T10:58:26.348Z,19.80
2017-06-16T11:00:54.020Z,19.80
2017-06-16T11:03:21.496Z,19.90
2017-06-16T11:05:48.976Z,20.10
2017-06-16T11:08:16.523Z,20.60
2017-06-16T11:10:44.064Z,20.90
2017-06-16T11:13:11.609Z,20.90
2017-06-16T11:15:39.264Z,21.20
2017-06-16T11:18:06.746Z,20.90
2017-06-16T11:20:34.240Z,20.70
2017-06-16T11:23:01.925Z,20.30
2017-06-16T11:25:29.948Z,20.30
2017-06-16T11:27:57.481Z,20.40
2017-06-16T11:30:25.004Z,20.20
2017-06-16T11:32:53.437Z,20.30
2017-06-16T11:35:20.916Z,20.20
2017-06-16T11:37:49.199Z,20.10
2017-06-16T11:40:16.810Z,20.10
2017-06-16T11:42:45.111Z,20.00
2017-06-16T11:45:12.646Z,20.00
2017-06-16T11:47:40.144Z,20.00
2017-06-16T11:50:08.396Z,20.10
2017-06-16T11:52:36.076Z,20.10
2017-06-16T11:55:04.383Z,20.20
2017-06-16T11:57:31.967Z,20.10
2017-06-16T12:00:00.321Z,20.30
2017-06-16T12:02:27.796Z,20.30
2017-06-16T12:04:55.276Z,20.50
2017-06-16T12:07:22.986Z,20.90
2017-06-16T12:09:50.480Z,21.30
2017-06-16T12:12:17.966Z,21.70
2017-06-16T12:14:45.546Z,22.00
2017-06-16T12:17:13.022Z,22.10
2017-06-16T12:19:40.606Z,21.90
2017-06-16T12:22:08.120Z,21.70
2017-06-16T12:24:36.368Z,21.50
2017-06-16T12:27:03.962Z,21.50
2017-06-16T12:29:31.495Z,21.20
2017-06-16T12:31:59.044Z,20.70
2017-06-16T12:34:26.580Z,20.40
2017-06-16T12:36:54.228Z,20.10
2017-06-16T12:39:21.767Z,20.40
2017-06-16T12:41:49.247Z,20.70
2017-06-16T12:44:16.881Z,21.00
2017-06-16T12:46:44.404Z,21.20
2017-06-16T12:49:11.945Z,21.30
2017-06-16T12:51:39.493Z,21.20
2017-06-16T12:54:06.976Z,21.20
2017-06-16T12:56:34.473Z,21.10
2017-06-16T12:59:02.020Z,21.20
2017-06-16T13:01:29.504Z,20.90
2017-06-16T13:03:56.989Z,20.70
2017-06-16T13:06:25.237Z,20.90
2017-06-16T13:08:53.621Z,21.30
2017-06-16T13:11:21.165Z,21.20
2017-06-16T13:13:48.644Z,21.50
2017-06-16T13:16:16.180Z,21.70
2017-06-16T13:18:43.689Z,21.80
2017-06-16T13:21:11.176Z,21.80
2017-06-16T13:23:38.687Z,21.40
2017-06-16T13:26:06.225Z,21.40
2017-06-16T13:28:33.776Z,21.50
2017-06-16T13:31:01.312Z,21.50
2017-06-16T13:33:28.852Z,21.20
2017-06-16T13:35:56.332Z,21.10
2017-06-16T13:38:23.892Z,21.00
2017-06-16T13:40:51.379Z,20.80
2017-06-16T13:43:18.860Z,20.80
2017-06-16T13:45:46.368Z,21.20
2017-06-16T13:48:13.908Z,21.70
2017-06-16T13:50:41.416Z,22.00
2017-06-16T13:53:09.026Z,22.10
2017-06-16T13:55:36.516Z,21.80
2017-06-16T13:58:04.934Z,21.90
2017-06-16T14:00:32.447Z,21.80
2017-06-16T14:02:59.923Z,22.40
2017-06-16T14:05:27.537Z,24.40
2017-06-16T14:07:55.080Z,26.00
2017-06-16T14:10:22.616Z,26.30
2017-06-16T14:12:50.160Z,25.50
2017-06-16T14:15:17.716Z,24.10
2017-06-16T14:17:45.256Z,23.40
2017-06-16T14:20:12.792Z,22.80
2017-06-16T14:22:40.364Z,22.10
2017-06-16T14:25:07.846Z,21.70
2017-06-16T14:27:35.429Z,21.50
2017-06-16T14:30:02.917Z,21.10
2017-06-16T14:32:30.395Z,21.00
2017-06-16T14:34:58.801Z,21.10
2017-06-16T14:37:26.287Z,21.10
2017-06-16T14:39:54.536Z,21.30
2017-06-16T14:42:22.115Z,21.30
2017-06-16T14:44:49.611Z,21.60
2017-06-16T14:47:17.267Z,22.40
2017-06-16T14:49:44.753Z,22.80
2017-06-16T14:52:12.289Z,23.00
2017-06-16T14:54:39.960Z,22.80
2017-06-16T14:57:07.479Z,22.20
2017-06-16T14:59:34.967Z,21.80
2017-06-16T15:02:02.495Z,21.30
2017-06-16T15:04:30.004Z,21.20
2017-06-16T15:06:57.552Z,20.90
2017-06-16T15:09:25.092Z,20.50
2017-06-16T15:11:52.572Z,20.40
2017-06-16T15:14:20.217Z,20.30
2017-06-16T15:16:47.725Z,20.20
2017-06-16T15:19:15.235Z,20.30
2017-06-16T15:21:42.742Z,20.40
2017-06-16T15:24:10.252Z,20.50
2017-06-16T15:26:37.764Z,20.60
2017-06-16T15:29:05.508Z,20.60
2017-06-16T15:31:33.088Z,20.60
2017-06-16T15:34:00.724Z,20.70
2017-06-16T15:36:28.996Z,21.30
2017-06-16T15:38:56.535Z,21.30
2017-06-16T15:41:24.904Z,21.70
2017-06-16T15:43:52.381Z,21.70
2017-06-16T15:46:19.888Z,21.90
2017-06-16T15:48:47.436Z,22.10
2017-06-16T15:51:14.974Z,21.80
2017-06-16T15:53:42.516Z,21.70
2017-06-16T15:56:09.997Z,21.60
2017-06-16T15:58:37.601Z,21.40
2017-06-16T16:01:05.084Z,21.20
2017-06-16T16:03:32.556Z,21.00
2017-06-16T16:06:00.233Z,20.40
2017-06-16T16:08:27.708Z,20.10
2017-06-16T16:10:55.216Z,19.90
2017-06-16T16:13:22.764Z,19.90
2017-06-16T16:15:50.310Z,19.70
2017-06-16T16:18:17.840Z,19.70
2017-06-16T16:20:45.499Z,20.30
2017-06-16T16:23:13.016Z,20.80
2017-06-16T16:25:41.302Z,21.50
2017-06-16T16:28:08.792Z,21.50
2017-06-16T16:30:36.296Z,21.90
2017-06-16T16:33:03.795Z,21.90
2017-06-16T16:35:31.283Z,22.20
2017-06-16T16:37:58.809Z,22.50
2017-06-16T16:40:26.295Z,21.90
2017-06-16T16:42:53.785Z,21.60
2017-06-16T16:45:22.055Z,21.00
2017-06-16T16:47:49.573Z,21.00
2017-06-16T16:50:17.835Z,20.90
2017-06-16T16:52:46.084Z,20.40
2017-06-16T16:55:14.548Z,20.40
2017-06-16T16:57:42.036Z,20.00
2017-06-16T17:00:09.557Z,19.80
2017-06-16T17:02:37.812Z,19.90
2017-06-16T17:05:06.332Z,19.80
2017-06-16T17:07:33.840Z,19.80
2017-06-16T17:10:01.384Z,19.80
2017-06-16T17:12:29.247Z,19.70
2017-06-16T17:14:56.776Z,19.80
2017-06-16T17:17:24.255Z,19.90
2017-06-16T17:19:51.767Z,20.00
2017-06-16T17:22:19.304Z,20.20
2017-06-16T17:24:46.853Z,20.20
2017-06-16T17:27:14.387Z,20.40
2017-06-16T17:29:41.871Z,20.30
2017-06-16T17:32:09.385Z,20.20
2017-06-16T17:34:36.977Z,20.10
2017-06-16T17:37:04.469Z,20.00
2017-06-16T17:39:32.012Z,20.00
2017-06-16T17:41:59.621Z,19.80
2017-06-16T17:44:27.096Z,19.60
2017-06-16T17:46:54.631Z,19.60
2017-06-16T17:49:22.380Z,19.50
2017-06-16T17:51:49.862Z,19.40
2017-06-16T17:54:17.348Z,19.40
2017-06-16T17:56:45.729Z,19.40
2017-06-16T17:59:13.213Z,19.40
2017-06-16T18:01:40.745Z,19.30
2017-06-16T18:04:08.259Z,19.10
2017-06-16T18:06:35.756Z,19.00
2017-06-16T18:09:03.273Z,18.90
2017-06-16T18:11:30.793Z,18.80
2017-06-16T18:13:58.336Z,18.70
2017-06-16T18:16:25.876Z,18.80
2017-06-16T18:18:53.417Z,18.80
2017-06-16T18:21:20.908Z,18.80
2017-06-16T18:23:48.604Z,18.70
2017-06-16T18:26:16.085Z,18.80
2017-06-16T18:28:43.564Z,18.90
2017-06-16T18:31:11.962Z,19.00
2017-06-16T18:33:39.454Z,19.00
2017-06-16T18:36:06.932Z,19.00
2017-06-16T18:38:35.217Z,19.00
2017-06-16T18:41:02.701Z,19.00
2017-06-16T18:43:30.184Z,19.00
2017-06-16T18:45:57.702Z,18.90
2017-06-16T18:48:25.988Z,18.90
2017-06-16T18:50:53.464Z,18.80
2017-06-16T18:53:20.981Z,18.70
2017-06-16T18:55:48.512Z,18.70
2017-06-16T18:58:16.061Z,18.60
2017-06-16T19:00:43.604Z,18.50
2017-06-16T19:03:11.108Z,18.60
2017-06-16T19:05:38.586Z,18.70
2017-06-16T19:08:06.128Z,18.70
2017-06-16T19:10:33.672Z,18.70
2017-06-16T19:13:01.424Z,18.60
2017-06-16T19:15:28.904Z,18.50
2017-06-16T19:17:56.380Z,18.40
2017-06-16T19:20:24.669Z,18.40
2017-06-16T19:22:52.209Z,18.40
2017-06-16T19:25:19.757Z,18.30
2017-06-16T19:27:47.258Z,18.40
2017-06-16T19:30:14.839Z,18.30
2017-06-16T19:32:42.327Z,18.30
2017-06-16T19:35:10.013Z,18.30
2017-06-16T19:37:38.264Z,18.20
2017-06-16T19:40:06.517Z,18.10
2017-06-16T19:42:34.098Z,18.10
2017-06-16T19:45:01.600Z,18.00
2017-06-16T19:47:29.285Z,17.90
2017-06-16T19:49:56.833Z,17.90
2017-06-16T19:52:24.368Z,17.90
2017-06-16T19:54:51.912Z,17.80
2017-06-16T19:57:19.457Z,17.70
2017-06-16T19:59:46.976Z,17.60
2017-06-16T20:02:15.257Z,17.50
2017-06-16T20:04:42.740Z,17.40
2017-06-16T20:07:10.233Z,17.40
2017-06-16T20:09:38.604Z,17.30
2017-06-16T20:12:06.093Z,17.30
2017-06-16T20:14:33.591Z,17.20
2017-06-16T20:17:01.265Z,17.20
2017-06-16T20:19:28.756Z,17.20
2017-06-16T20:21:57.012Z,17.00
2017-06-16T20:24:25.504Z,17.00
2017-06-16T20:26:53.051Z,17.00
2017-06-16T20:29:20.601Z,17.00
2017-06-16T20:31:48.124Z,16.80
2017-06-16T20:34:16.508Z,16.80
2017-06-16T20:36:43.999Z,16.80
2017-06-16T20:39:11.692Z,16.70
2017-06-16T20:41:39.235Z,16.60
2017-06-16T20:44:06.805Z,16.60
2017-06-16T20:46:34.300Z,16.60
2017-06-16T20:49:02.576Z,16.50
2017-06-16T20:51:30.060Z,16.50
2017-06-16T20:53:57.580Z,16.40
2017-06-16T20:56:25.103Z,16.30
2017-06-16T20:58:52.657Z,16.30
2017-06-16T21:01:20.400Z,16.30
2017-06-16T21:03:47.900Z,16.30
2017-06-16T21:06:15.388Z,16.30
2017-06-16T21:08:43.676Z,16.20
2017-06-16T21:11:11.224Z,16.20
2017-06-16T21:13:38.717Z,16.10
2017-06-16T21:16:06.233Z,16.10
2017-06-16T21:18:33.719Z,16.10
2017-06-16T21:21:07.745Z,15.90
2017-06-16T21:23:35.293Z,15.90
2017-06-16T21:26:02.839Z,15.90
2017-06-16T21:28:30.376Z,15.90
2017-06-16T21:30:57.856Z,15.80
2017-06-16T21:33:25.368Z,15.70
2017-06-16T21:35:52.853Z,15.60
2017-06-16T21:38:20.373Z,15.60
2017-06-16T21:40:47.856Z,15.60
2017-06-16T21:43:16.108Z,15.40
2017-06-16T21:45:43.697Z,15.40
2017-06-16T21:48:11.237Z,15.40
2017-06-16T21:50:38.757Z,15.40
2017-06-16T21:53:07.587Z,15.30
2017-06-16T21:55:35.099Z,15.30
2017-06-16T21:58:02.640Z,15.30
2017-06-16T22:00:30.180Z,15.30
2017-06-16T22:02:57.720Z,15.30
2017-06-16T22:05:25.219Z,15.30
2017-06-16T22:07:53.460Z,15.00
2017-06-16T22:10:21.039Z,15.00
2017-06-16T22:12:48.531Z,15.10
2017-06-16T22:15:16.014Z,15.00
2017-06-16T22:17:44.276Z,14.90
2017-06-16T22:20:11.765Z,14.80
2017-06-16T22:22:39.264Z,14.80
2017-06-16T22:25:06.816Z,14.80
2017-06-16T22:27:34.352Z,14.70
2017-06-16T22:30:01.901Z,14.60
2017-06-16T22:32:29.444Z,14.70
2017-06-16T22:34:56.921Z,14.60
2017-06-16T22:37:24.425Z,14.60
2017-06-16T22:39:51.912Z,14.50
2017-06-16T22:42:19.416Z,14.40
2017-06-16T22:44:46.940Z,14.40
2017-06-16T22:47:14.433Z,14.30
2017-06-16T22:49:41.939Z,14.30
2017-06-16T22:52:09.440Z,14.30
2017-06-16T22:54:37.132Z,14.20
2017-06-16T22:57:04.703Z,14.30
2017-06-16T22:59:32.217Z,14.30
2017-06-16T23:01:59.763Z,14.20
2017-06-16T23:04:27.252Z,14.20
2017-06-16T23:06:54.763Z,14.20
2017-06-16T23:09:22.368Z,14.10
2017-06-16T23:11:49.948Z,14.10
2017-06-16T23:14:17.496Z,14.00
2017-06-16T23:16:45.040Z,13.90
2017-06-16T23:19:12.584Z,13.80
2017-06-16T23:21:40.129Z,13.90
2017-06-16T23:24:07.664Z,13.90
2017-06-16T23:26:35.152Z,13.90
2017-06-16T23:29:02.667Z,14.00
2017-06-16T23:31:30.200Z,13.90
2017-06-16T23:33:57.693Z,13.90
2017-06-16T23:36:25.184Z,13.80
2017-06-16T23:38:52.724Z,13.80
2017-06-16T23:41:20.268Z,13.80
2017-06-16T23:43:47.812Z,13.80
2017-06-16T23:46:15.385Z,13.80
2017-06-16T23:48:42.897Z,13.80
2017-06-16T23:51:10.396Z,13.80
2017-06-16T23:53:37.894Z,13.80
2017-06-16T23:56:05.431Z,13.80
2017-06-16T23:58:32.920Z,13.70
